Terminal Aerodrome Forecast
Issued by NWS Flagstaff, AZ

Home | Current Version | Previous Version | Text Only | Print | Product List | Glossary On
Versions: 1 2 3 4 5 6 7 8 9 10 11 12 13 14 15 16 17 18 19 20 21 22 23 24 25 26 27 28 29 30
000
FTUS45 KFGZ 190300 AAC
TAFFLG
TAF AMD
KFLG 190348Z 1904/1924 00000KT 3SM BR FEW025 SCT060
      TEMPO 1904/1908 1/2SM FZFG VV002
     FM191500 VRB05KT P6SM FEW060
     FM192000 21005KT P6SM FEW080=

USA.gov is the U.S. government's official web portal to all federal, state and local government web resources and services.